sensor_id;sensor_type;location;lat;lon;timestamp;pressure;altitude;pressure_sealevel;temperature;humidity
10466;BME280;5280;42.600;23.556;2024-01-10T00:01:11;94381.47;;;-4.18;100.00
10466;BME280;5280;42.600;23.556;2024-01-10T00:03:39;94349.81;;;-4.42;100.00
10466;BME280;5280;42.600;23.556;2024-01-10T00:06:06;94389.31;;;-4.29;99.80
10466;BME280;5280;42.600;23.556;2024-01-10T00:08:33;94388.47;;;-4.34;99.44
10466;BME280;5280;42.600;23.556;2024-01-10T00:11:00;94373.91;;;-4.43;100.00
10466;BME280;5280;42.600;23.556;2024-01-10T00:13:27;94368.72;;;-4.35;100.00
10466;BME280;5280;42.600;23.556;2024-01-10T00:15:55;94391.84;;;-4.27;100.00
10466;BME280;5280;42.600;23.556;2024-01-10T00:18:24;94382.41;;;-4.25;100.00
10466;BME280;5280;42.600;23.556;2024-01-10T00:21:09;94335.34;;;-4.62;100.00
10466;BME280;5280;42.600;23.556;2024-01-10T00:23:36;94382.44;;;-4.31;100.00
10466;BME280;5280;42.600;23.556;2024-01-10T00:26:05;94299.31;;;-4.71;100.00
10466;BME280;5280;42.600;23.556;2024-01-10T00:28:32;94402.09;;;-4.15;100.00
10466;BME280;5280;42.600;23.556;2024-01-10T00:30:58;94373.72;;;-4.15;100.00
10466;BME280;5280;42.600;23.556;2024-01-10T00:33:25;94362.53;;;-4.17;100.00
10466;BME280;5280;42.600;23.556;2024-01-10T00:35:52;94395.94;;;-3.96;100.00
10466;BME280;5280;42.600;23.556;2024-01-10T00:38:20;94326.50;;;-4.28;100.00
10466;BME280;5280;42.600;23.556;2024-01-10T00:40:47;94347.88;;;-4.12;100.00
10466;BME280;5280;42.600;23.556;2024-01-10T00:43:14;94386.31;;;-3.80;100.00
10466;BME280;5280;42.600;23.556;2024-01-10T00:45:41;94370.84;;;-3.80;100.00
10466;BME280;5280;42.600;23.556;2024-01-10T00:48:08;94369.88;;;-3.72;100.00
10466;BME280;5280;42.600;23.556;2024-01-10T00:50:35;94362.13;;;-3.70;100.00
10466;BME280;5280;42.600;23.556;2024-01-10T00:53:02;94375.81;;;-3.61;100.00
10466;BME280;5280;42.600;23.556;2024-01-10T00:55:30;94384.28;;;-3.48;100.00
10466;BME280;5280;42.600;23.556;2024-01-10T00:57:57;94383.41;;;-3.45;100.00
10466;BME280;5280;42.600;23.556;2024-01-10T01:00:24;94315.84;;;-3.88;100.00
10466;BME280;5280;42.600;23.556;2024-01-10T01:02:51;94382.44;;;-3.38;100.00
10466;BME280;5280;42.600;23.556;2024-01-10T01:05:17;94373.88;;;-3.42;100.00
10466;BME280;5280;42.600;23.556;2024-01-10T01:07:44;94376.41;;;-3.34;100.00
10466;BME280;5280;42.600;23.556;2024-01-10T01:10:11;94388.34;;;-3.24;100.00
10466;BME280;5280;42.600;23.556;2024-01-10T01:12:40;94370.34;;;-3.32;100.00
10466;BME280;5280;42.600;23.556;2024-01-10T01:15:07;94336.91;;;-3.49;100.00
10466;BME280;5280;42.600;23.556;2024-01-10T01:17:34;94371.09;;;-3.22;100.00
10466;BME280;5280;42.600;23.556;2024-01-10T01:20:01;94374.47;;;-3.17;100.00
10466;BME280;5280;42.600;23.556;2024-01-10T01:22:30;94290.63;;;-3.67;100.00
10466;BME280;5280;42.600;23.556;2024-01-10T01:24:57;94336.78;;;-3.36;100.00
10466;BME280;5280;42.600;23.556;2024-01-10T01:27:35;94370.97;;;-3.13;100.00
10466;BME280;5280;42.600;23.556;2024-01-10T01:30:05;94298.28;;;-3.58;100.00
10466;BME280;5280;42.600;23.556;2024-01-10T01:32:32;94280.47;;;-3.79;100.00
10466;BME280;5280;42.600;23.556;2024-01-10T01:34:59;94362.47;;;-3.20;100.00
10466;BME280;5280;42.600;23.556;2024-01-10T01:37:25;94373.56;;;-3.13;100.00
10466;BME280;5280;42.600;23.556;2024-01-10T01:39:52;94357.22;;;-3.15;100.00
10466;BME280;5280;42.600;23.556;2024-01-10T01:42:19;94319.69;;;-3.47;100.00
10466;BME280;5280;42.600;23.556;2024-01-10T01:44:46;94343.50;;;-3.20;100.00
10466;BME280;5280;42.600;23.556;2024-01-10T01:47:14;94377.75;;;-3.03;100.00
10466;BME280;5280;42.600;23.556;2024-01-10T01:49:42;94358.00;;;-3.09;100.00
10466;BME280;5280;42.600;23.556;2024-01-10T01:52:10;94346.06;;;-3.19;100.00
10466;BME280;5280;42.600;23.556;2024-01-10T01:54:37;94352.03;;;-3.14;100.00
10466;BME280;5280;42.600;23.556;2024-01-10T01:57:04;94347.72;;;-3.12;98.92
10466;BME280;5280;42.600;23.556;2024-01-10T01:59:31;94354.47;;;-3.03;97.58
10466;BME280;5280;42.600;23.556;2024-01-10T02:02:01;94353.63;;;-3.02;96.65
10466;BME280;5280;42.600;23.556;2024-01-10T02:04:31;94348.44;;;-3.02;97.27
10466;BME280;5280;42.600;23.556;2024-01-10T02:06:58;94346.66;;;-2.97;97.13
10466;BME280;5280;42.600;23.556;2024-01-10T02:09:25;94358.72;;;-2.94;97.29
10466;BME280;5280;42.600;23.556;2024-01-10T02:11:52;94342.47;;;-3.04;97.65
10466;BME280;5280;42.600;23.556;2024-01-10T02:14:19;94358.72;;;-2.94;98.49
10466;BME280;5280;42.600;23.556;2024-01-10T02:16:47;94360.38;;;-2.92;98.96
10466;BME280;5280;42.600;23.556;2024-01-10T02:19:18;94364.69;;;-2.91;99.34
10466;BME280;5280;42.600;23.556;2024-01-10T02:21:47;94350.09;;;-2.95;100.00
10466;BME280;5280;42.600;23.556;2024-01-10T02:24:14;94342.47;;;-3.06;99.91
10466;BME280;5280;42.600;23.556;2024-01-10T02:26:42;94340.75;;;-3.08;100.00
10466;BME280;5280;42.600;23.556;2024-01-10T02:29:09;94355.28;;;-2.98;100.00
10466;BME280;5280;42.600;23.556;2024-01-10T02:31:36;94340.75;;;-3.08;100.00
10466;BME280;5280;42.600;23.556;2024-01-10T02:34:03;94353.66;;;-3.05;100.00
10466;BME280;5280;42.600;23.556;2024-01-10T02:36:31;94337.38;;;-3.12;100.00
10466;BME280;5280;42.600;23.556;2024-01-10T02:38:58;94350.22;;;-3.07;100.00
10466;BME280;5280;42.600;23.556;2024-01-10T02:41:25;94336.63;;;-3.21;100.00
10466;BME280;5280;42.600;23.556;2024-01-10T02:43:54;94344.31;;;-3.18;100.00
10466;BME280;5280;42.600;23.556;2024-01-10T02:46:24;94362.28;;;-3.05;100.00
10466;BME280;5280;42.600;23.556;2024-01-10T02:48:53;94341.72;;;-3.15;100.00
10466;BME280;5280;42.600;23.556;2024-01-10T02:51:20;94340.84;;;-3.14;100.00
10466;BME280;5280;42.600;23.556;2024-01-10T02:53:52;94350.25;;;-3.09;100.00
10466;BME280;5280;42.600;23.556;2024-01-10T02:56:21;94369.19;;;-3.07;100.00
10466;BME280;5280;42.600;23.556;2024-01-10T02:58:47;94353.66;;;-3.05;100.00
10466;BME280;5280;42.600;23.556;2024-01-10T03:01:16;94297.28;;;-3.44;100.00
10466;BME280;5280;42.600;23.556;2024-01-10T03:03:43;94350.28;;;-3.12;100.00
10466;BME280;5280;42.600;23.556;2024-01-10T03:06:09;94327.19;;;-3.25;100.00
10466;BME280;5280;42.600;23.556;2024-01-10T03:08:36;94311.00;;;-3.41;100.00
10466;BME280;5280;42.600;23.556;2024-01-10T03:11:09;94310.91;;;-3.33;100.00
10466;BME280;5280;42.600;23.556;2024-01-10T03:13:36;94351.19;;;-3.14;100.00
10466;BME280;5280;42.600;23.556;2024-01-10T03:16:04;94340.81;;;-3.13;100.00
10466;BME280;5280;42.600;23.556;2024-01-10T03:18:33;94287.94;;;-3.58;100.00
10466;BME280;5280;42.600;23.556;2024-01-10T03:21:03;94340.00;;;-3.16;100.00
10466;BME280;5280;42.600;23.556;2024-01-10T03:23:32;94332.31;;;-3.22;100.00
10466;BME280;5280;42.600;23.556;2024-01-10T03:25:59;94263.09;;;-3.66;100.00
10466;BME280;5280;42.600;23.556;2024-01-10T03:28:26;94364.88;;;-3.05;100.00
10466;BME280;5280;42.600;23.556;2024-01-10T03:30:53;94360.56;;;-3.06;100.00
10466;BME280;5280;42.600;23.556;2024-01-10T03:33:25;94350.28;;;-3.13;100.00
10466;BME280;5280;42.600;23.556;2024-01-10T03:35:53;94367.41;;;-3.03;100.00
10466;BME280;5280;42.600;23.556;2024-01-10T03:38:20;94348.63;;;-3.17;100.00
10466;BME280;5280;42.600;23.556;2024-01-10T03:40:47;94350.28;;;-3.13;100.00
10466;BME280;5280;42.600;23.556;2024-01-10T03:43:14;94339.22;;;-3.21;100.00
10466;BME280;5280;42.600;23.556;2024-01-10T03:45:42;94340.13;;;-3.24;100.00
10466;BME280;5280;42.600;23.556;2024-01-10T03:48:09;94357.13;;;-3.06;100.00
10466;BME280;5280;42.600;23.556;2024-01-10T03:50:36;94353.69;;;-3.08;100.00
10466;BME280;5280;42.600;23.556;2024-01-10T03:53:05;94310.97;;;-3.36;100.00
10466;BME280;5280;42.600;23.556;2024-01-10T03:55:31;94304.13;;;-3.43;100.00
10466;BME280;5280;42.600;23.556;2024-01-10T03:57:59;94358.84;;;-3.05;100.00
10466;BME280;5280;42.600;23.556;2024-01-10T04:00:25;94331.41;;;-3.18;100.00
10466;BME280;5280;42.600;23.556;2024-01-10T04:02:53;94355.44;;;-3.10;100.00
10466;BME280;5280;42.600;23.556;2024-01-10T04:05:20;94360.63;;;-3.10;100.00
10466;BME280;5280;42.600;23.556;2024-01-10T04:07:46;94338.34;;;-3.23;100.00
10466;BME280;5280;42.600;23.556;2024-01-10T04:10:15;94373.47;;;-3.04;100.00
10466;BME280;5280;42.600;23.556;2024-01-10T04:12:41;94380.38;;;-3.06;100.00
10466;BME280;5280;42.600;23.556;2024-01-10T04:15:10;94381.25;;;-3.07;100.00
10466;BME280;5280;42.600;23.556;2024-01-10T04:17:40;94379.53;;;-3.08;100.00
10466;BME280;5280;42.600;23.556;2024-01-10T04:20:09;94329.97;;;-3.40;100.00
10466;BME280;5280;42.600;23.556;2024-01-10T04:22:42;94383.03;;;-3.12;100.00
10466;BME280;5280;42.600;23.556;2024-01-10T04:25:11;94378.84;;;-3.21;100.00
10466;BME280;5280;42.600;23.556;2024-01-10T04:27:40;94369.47;;;-3.32;100.00
10466;BME280;5280;42.600;23.556;2024-01-10T04:30:07;94389.97;;;-3.17;100.00
10466;BME280;5280;42.600;23.556;2024-01-10T04:32:34;94372.00;;;-3.28;100.00
10466;BME280;5280;42.600;23.556;2024-01-10T04:35:01;94384.00;;;-3.21;100.00
10466;BME280;5280;42.600;23.556;2024-01-10T04:37:28;94378.91;;;-3.27;100.00
10466;BME280;5280;42.600;23.556;2024-01-10T04:39:55;94333.63;;;-3.61;100.00
10466;BME280;5280;42.600;23.556;2024-01-10T04:42:22;94378.09;;;-3.33;100.00
10466;BME280;5280;42.600;23.556;2024-01-10T04:44:50;94402.09;;;-3.19;100.00
10466;BME280;5280;42.600;23.556;2024-01-10T04:47:18;94408.13;;;-3.20;100.00
10466;BME280;5280;42.600;23.556;2024-01-10T04:49:48;94354.25;;;-3.57;100.00
10466;BME280;5280;42.600;23.556;2024-01-10T04:52:16;94408.19;;;-3.25;100.00
10466;BME280;5280;42.600;23.556;2024-01-10T04:54:45;94409.91;;;-3.24;100.00
10466;BME280;5280;42.600;23.556;2024-01-10T04:57:12;94409.03;;;-3.26;100.00
10466;BME280;5280;42.600;23.556;2024-01-10T04:59:39;94413.41;;;-3.31;100.00
10466;BME280;5280;42.600;23.556;2024-01-10T05:02:10;94378.34;;;-3.55;100.00
10466;BME280;5280;42.600;23.556;2024-01-10T05:04:38;94336.50;;;-3.88;100.00
10466;BME280;5280;42.600;23.556;2024-01-10T05:07:05;94421.16;;;-3.29;100.00
10466;BME280;5280;42.600;23.556;2024-01-10T05:09:32;94420.25;;;-3.27;100.00
10466;BME280;5280;42.600;23.556;2024-01-10T05:11:59;94409.16;;;-3.35;100.00
10466;BME280;5280;42.600;23.556;2024-01-10T05:14:27;94362.00;;;-3.58;100.00
10466;BME280;5280;42.600;23.556;2024-01-10T05:16:55;94399.66;;;-3.36;100.00
10466;BME280;5280;42.600;23.556;2024-01-10T05:19:24;94416.75;;;-3.23;100.00
10466;BME280;5280;42.600;23.556;2024-01-10T05:21:51;94414.28;;;-3.33;100.00
10466;BME280;5280;42.600;23.556;2024-01-10T05:24:20;94418.53;;;-3.28;100.00
10466;BME280;5280;42.600;23.556;2024-01-10T05:26:48;94414.28;;;-3.33;100.00
10466;BME280;5280;42.600;23.556;2024-01-10T05:29:18;94347.44;;;-3.64;100.00
10466;BME280;5280;42.600;23.556;2024-01-10T05:31:48;94424.53;;;-3.24;100.00
10466;BME280;5280;42.600;23.556;2024-01-10T05:34:15;94416.78;;;-3.24;100.00
10466;BME280;5280;42.600;23.556;2024-01-10T05:36:45;94356.97;;;-3.70;100.00
10466;BME280;5280;42.600;23.556;2024-01-10T05:39:12;94418.53;;;-3.28;100.00
10466;BME280;5280;42.600;23.556;2024-01-10T05:41:41;94392.94;;;-3.51;100.00
10466;BME280;5280;42.600;23.556;2024-01-10T05:44:09;94414.38;;;-3.41;100.00
10466;BME280;5280;42.600;23.556;2024-01-10T05:46:36;94433.09;;;-3.19;100.00
10466;BME280;5280;42.600;23.556;2024-01-10T05:49:03;94430.47;;;-3.18;100.00
10466;BME280;5280;42.600;23.556;2024-01-10T05:51:31;94440.81;;;-3.16;100.00
10466;BME280;5280;42.600;23.556;2024-01-10T05:53:59;94420.16;;;-3.18;100.00
10466;BME280;5280;42.600;23.556;2024-01-10T05:56:27;94432.19;;;-3.15;100.00
10466;BME280;5280;42.600;23.556;2024-01-10T05:58:54;94434.78;;;-3.15;100.00
10466;BME280;5280;42.600;23.556;2024-01-10T06:01:21;94438.22;;;-3.16;100.00
10466;BME280;5280;42.600;23.556;2024-01-10T06:03:48;94445.13;;;-3.18;100.00
10466;BME280;5280;42.600;23.556;2024-01-10T06:06:15;94443.50;;;-3.24;100.00
10466;BME280;5280;42.600;23.556;2024-01-10T06:08:42;94408.44;;;-3.51;100.00
10466;BME280;5280;42.600;23.556;2024-01-10T06:11:11;94429.00;;;-3.41;100.00
10466;BME280;5280;42.600;23.556;2024-01-10T06:13:38;94438.44;;;-3.36;100.00
10466;BME280;5280;42.600;23.556;2024-01-10T06:16:07;94439.31;;;-3.38;100.00
10466;BME280;5280;42.600;23.556;2024-01-10T06:18:34;94423.06;;;-3.53;100.00
10466;BME280;5280;42.600;23.556;2024-01-10T06:21:01;94453.03;;;-3.32;100.00
10466;BME280;5280;42.600;23.556;2024-01-10T06:23:30;94454.69;;;-3.25;100.00
10466;BME280;5280;42.600;23.556;2024-01-10T06:25:57;94462.50;;;-3.29;100.00
10466;BME280;5280;42.600;23.556;2024-01-10T06:28:25;94460.72;;;-3.26;100.00
10466;BME280;5280;42.600;23.556;2024-01-10T06:30:52;94461.59;;;-3.27;100.00
10466;BME280;5280;42.600;23.556;2024-01-10T06:33:19;94461.69;;;-3.34;100.00
10466;BME280;5280;42.600;23.556;2024-01-10T06:35:46;94448.00;;;-3.47;100.00
10466;BME280;5280;42.600;23.556;2024-01-10T06:38:13;94441.19;;;-3.54;100.00
10466;BME280;5280;42.600;23.556;2024-01-10T06:40:42;94463.47;;;-3.41;100.00
10466;BME280;5280;42.600;23.556;2024-01-10T06:43:10;94478.91;;;-3.36;100.00
10466;BME280;5280;42.600;23.556;2024-01-10T06:45:38;94482.31;;;-3.33;100.00
10466;BME280;5280;42.600;23.556;2024-01-10T06:48:06;94471.16;;;-3.35;100.00
10466;BME280;5280;42.600;23.556;2024-01-10T06:50:34;94474.59;;;-3.37;100.00
10466;BME280;5280;42.600;23.556;2024-01-10T06:53:01;94442.00;;;-3.49;100.00
10466;BME280;5280;42.600;23.556;2024-01-10T06:55:28;94481.41;;;-3.27;100.00
10466;BME280;5280;42.600;23.556;2024-01-10T06:57:55;94489.16;;;-3.26;100.00
10466;BME280;5280;42.600;23.556;2024-01-10T07:00:22;94422.34;;;-3.67;100.00
10466;BME280;5280;42.600;23.556;2024-01-10T07:02:51;94476.38;;;-3.42;100.00
10466;BME280;5280;42.600;23.556;2024-01-10T07:05:18;94481.53;;;-3.42;100.00
10466;BME280;5280;42.600;23.556;2024-01-10T07:07:46;94479.78;;;-3.34;100.00
10466;BME280;5280;42.600;23.556;2024-01-10T07:10:15;94459.25;;;-3.53;100.00
10466;BME280;5280;42.600;23.556;2024-01-10T07:12:43;94490.16;;;-3.43;100.00
10466;BME280;5280;42.600;23.556;2024-01-10T07:15:10;94489.25;;;-3.38;100.00
10466;BME280;5280;42.600;23.556;2024-01-10T07:17:38;94490.13;;;-3.37;100.00
10466;BME280;5280;42.600;23.556;2024-01-10T07:20:08;94485.81;;;-3.35;99.12
10466;BME280;5280;42.600;23.556;2024-01-10T07:22:38;94458.41;;;-3.55;99.46
10466;BME280;5280;42.600;23.556;2024-01-10T07:25:07;94488.38;;;-3.35;99.83
10466;BME280;5280;42.600;23.556;2024-01-10T07:27:35;94497.81;;;-3.33;100.00
10466;BME280;5280;42.600;23.556;2024-01-10T07:30:05;94499.53;;;-3.32;100.00
10466;BME280;5280;42.600;23.556;2024-01-10T07:32:37;94472.13;;;-3.48;100.00
10466;BME280;5280;42.600;23.556;2024-01-10T07:35:05;94486.72;;;-3.39;100.00
10466;BME280;5280;42.600;23.556;2024-01-10T07:37:36;94491.94;;;-3.47;100.00
10466;BME280;5280;42.600;23.556;2024-01-10T07:40:04;94510.78;;;-3.37;100.00
10466;BME280;5280;42.600;23.556;2024-01-10T07:42:32;94465.44;;;-3.72;99.74
10466;BME280;5280;42.600;23.556;2024-01-10T07:45:00;94528.91;;;-3.40;99.68
10466;BME280;5280;42.600;23.556;2024-01-10T07:47:29;94526.38;;;-3.47;100.00
10466;BME280;5280;42.600;23.556;2024-01-10T07:49:56;94525.44;;;-3.38;100.00
10466;BME280;5280;42.600;23.556;2024-01-10T07:52:23;94441.47;;;-3.87;100.00
10466;BME280;5280;42.600;23.556;2024-01-10T07:54:52;94438.94;;;-3.95;100.00
10466;BME280;5280;42.600;23.556;2024-01-10T07:57:19;94510.00;;;-3.44;100.00
10466;BME280;5280;42.600;23.556;2024-01-10T07:59:46;94528.88;;;-3.34;99.88
10466;BME280;5280;42.600;23.556;2024-01-10T08:02:13;94508.31;;;-3.51;99.93
10466;BME280;5280;42.600;23.556;2024-01-10T08:04:40;94522.94;;;-3.45;100.00
10466;BME280;5280;42.600;23.556;2024-01-10T08:07:07;94531.56;;;-3.51;99.71
10466;BME280;5280;42.600;23.556;2024-01-10T08:09:35;94529.84;;;-3.49;100.00
10466;BME280;5280;42.600;23.556;2024-01-10T08:12:04;94507.53;;;-3.62;100.00
10466;BME280;5280;42.600;23.556;2024-01-10T08:14:32;94537.56;;;-3.48;100.00
10466;BME280;5280;42.600;23.556;2024-01-10T08:16:59;94517.94;;;-3.70;100.00
10466;BME280;5280;42.600;23.556;2024-01-10T08:19:26;94446.81;;;-4.10;100.00
10466;BME280;5280;42.600;23.556;2024-01-10T08:21:54;94510.25;;;-3.77;100.00
10466;BME280;5280;42.600;23.556;2024-01-10T08:24:22;94525.69;;;-3.70;100.00
10466;BME280;5280;42.600;23.556;2024-01-10T08:26:49;94528.25;;;-3.64;100.00
10466;BME280;5280;42.600;23.556;2024-01-10T08:29:19;94447.66;;;-4.11;100.00
10466;BME280;5280;42.600;23.556;2024-01-10T08:31:46;94539.47;;;-3.72;100.00
10466;BME280;5280;42.600;23.556;2024-01-10T08:34:13;94541.22;;;-3.77;99.56
10466;BME280;5280;42.600;23.556;2024-01-10T08:36:41;94539.50;;;-3.78;100.00
10466;BME280;5280;42.600;23.556;2024-01-10T08:39:08;94536.09;;;-3.82;100.00
10466;BME280;5280;42.600;23.556;2024-01-10T08:41:36;94538.72;;;-3.85;100.00
10466;BME280;5280;42.600;23.556;2024-01-10T08:44:08;94538.72;;;-3.85;100.00
10466;BME280;5280;42.600;23.556;2024-01-10T08:46:37;94521.53;;;-3.92;100.00
10466;BME280;5280;42.600;23.556;2024-01-10T08:49:04;94550.72;;;-3.79;100.00
10466;BME280;5280;42.600;23.556;2024-01-10T08:51:31;94542.06;;;-3.71;100.00
10466;BME280;5280;42.600;23.556;2024-01-10T08:53:59;94537.78;;;-3.75;100.00
10466;BME280;5280;42.600;23.556;2024-01-10T08:56:26;94530.09;;;-3.84;100.00
10466;BME280;5280;42.600;23.556;2024-01-10T08:58:54;94526.63;;;-3.81;99.52
10466;BME280;5280;42.600;23.556;2024-01-10T09:01:21;94556.66;;;-3.67;99.57
10466;BME280;5280;42.600;23.556;2024-01-10T09:03:50;94478.66;;;-4.14;100.00
10466;BME280;5280;42.600;23.556;2024-01-10T09:06:17;94553.22;;;-3.67;99.85
10466;BME280;5280;42.600;23.556;2024-01-10T09:08:44;94557.47;;;-3.60;98.43
10466;BME280;5280;42.600;23.556;2024-01-10T09:11:11;94540.38;;;-3.76;98.74
10466;BME280;5280;42.600;23.556;2024-01-10T09:13:38;94539.50;;;-3.75;98.14
10466;BME280;5280;42.600;23.556;2024-01-10T09:16:06;94549.78;;;-3.65;97.90
10466;BME280;5280;42.600;23.556;2024-01-10T09:18:33;94535.09;;;-3.61;98.77
10466;BME280;5280;42.600;23.556;2024-01-10T09:21:02;94491.38;;;-3.85;98.34
10466;BME280;5280;42.600;23.556;2024-01-10T09:23:30;94537.72;;;-3.66;98.27
10466;BME280;5280;42.600;23.556;2024-01-10T09:25:57;94548.94;;;-3.70;96.30
10466;BME280;5280;42.600;23.556;2024-01-10T09:28:25;94488.84;;;-3.96;95.85
10466;BME280;5280;42.600;23.556;2024-01-10T09:30:52;94534.31;;;-3.69;97.59
10466;BME280;5280;42.600;23.556;2024-01-10T09:33:19;94536.00;;;-3.67;97.01
10466;BME280;5280;42.600;23.556;2024-01-10T09:35:48;94544.56;;;-3.59;95.81
10466;BME280;5280;42.600;23.556;2024-01-10T09:38:16;94541.09;;;-3.55;94.98
10466;BME280;5280;42.600;23.556;2024-01-10T09:40:44;94537.59;;;-3.52;96.45
10466;BME280;5280;42.600;23.556;2024-01-10T09:43:11;94542.72;;;-3.46;96.36
10466;BME280;5280;42.600;23.556;2024-01-10T09:45:43;94539.38;;;-3.56;95.46
10466;BME280;5280;42.600;23.556;2024-01-10T09:48:14;94535.25;;;-3.87;95.11
10466;BME280;5280;42.600;23.556;2024-01-10T09:50:42;94534.34;;;-3.74;95.88
10466;BME280;5280;42.600;23.556;2024-01-10T09:53:16;94533.44;;;-3.70;96.63
10466;BME280;5280;42.600;23.556;2024-01-10T09:55:49;94526.56;;;-3.69;97.40
10466;BME280;5280;42.600;23.556;2024-01-10T09:58:16;94534.16;;;-3.51;95.41
10466;BME280;5280;42.600;23.556;2024-01-10T10:00:44;94510.94;;;-3.56;95.75
10466;BME280;5280;42.600;23.556;2024-01-10T10:03:11;94522.09;;;-3.52;96.79
10466;BME280;5280;42.600;23.556;2024-01-10T10:05:42;94489.69;;;-3.93;96.56
10466;BME280;5280;42.600;23.556;2024-01-10T10:08:11;94520.38;;;-3.52;96.75
10466;BME280;5280;42.600;23.556;2024-01-10T10:10:40;94520.47;;;-3.61;98.48
10466;BME280;5280;42.600;23.556;2024-01-10T10:13:11;94505.81;;;-3.62;97.94
10466;BME280;5280;42.600;23.556;2024-01-10T10:15:57;94468.06;;;-3.76;97.72
10466;BME280;5280;42.600;23.556;2024-01-10T10:18:25;94441.44;;;-3.86;98.26
10466;BME280;5280;42.600;23.556;2024-01-10T10:21:07;94497.06;;;-3.42;97.74
10466;BME280;5280;42.600;23.556;2024-01-10T10:23:34;94463.66;;;-3.65;97.69
10466;BME280;5280;42.600;23.556;2024-01-10T10:26:12;94437.00;;;-3.66;98.28
10466;BME280;5280;42.600;23.556;2024-01-10T10:28:45;94495.13;;;-3.19;98.58
10466;BME280;5280;42.600;23.556;2024-01-10T10:31:12;94481.44;;;-3.30;98.11
10466;BME280;5280;42.600;23.556;2024-01-10T10:33:40;94484.09;;;-3.36;97.11
10466;BME280;5280;42.600;23.556;2024-01-10T10:36:07;94477.16;;;-3.31;97.19
10466;BME280;5280;42.600;23.556;2024-01-10T10:38:35;94489.19;;;-3.30;97.93
10466;BME280;5280;42.600;23.556;2024-01-10T10:41:05;94476.16;;;-3.18;97.43
10466;BME280;5280;42.600;23.556;2024-01-10T10:43:38;94463.41;;;-3.36;97.62
10466;BME280;5280;42.600;23.556;2024-01-10T10:46:06;94461.53;;;-3.19;98.70
10466;BME280;5280;42.600;23.556;2024-01-10T10:48:34;94464.94;;;-3.17;98.45
10466;BME280;5280;42.600;23.556;2024-01-10T10:51:06;94467.41;;;-3.05;98.75
10466;BME280;5280;42.600;23.556;2024-01-10T10:53:35;94461.34;;;-3.01;98.60
10466;BME280;5280;42.600;23.556;2024-01-10T10:56:04;94465.53;;;-2.92;97.96
10466;BME280;5280;42.600;23.556;2024-01-10T10:58:34;94392.72;;;-3.29;97.51
10466;BME280;5280;42.600;23.556;2024-01-10T11:01:10;94455.19;;;-2.91;98.31
10466;BME280;5280;42.600;23.556;2024-01-10T11:03:38;94442.19;;;-2.85;97.26
10466;BME280;5280;42.600;23.556;2024-01-10T11:06:06;94437.91;;;-2.86;98.03
10466;BME280;5280;42.600;23.556;2024-01-10T11:08:36;94446.41;;;-2.76;98.00
10466;BME280;5280;42.600;23.556;2024-01-10T11:11:07;94415.44;;;-2.84;98.58
10466;BME280;5280;42.600;23.556;2024-01-10T11:13:53;94435.94;;;-2.69;98.10
10466;BME280;5280;42.600;23.556;2024-01-10T11:16:45;94410.31;;;-2.87;97.58
10466;BME280;5280;42.600;23.556;2024-01-10T11:19:41;94405.88;;;-2.77;97.70
10466;BME280;5280;42.600;23.556;2024-01-10T11:22:19;94411.13;;;-2.82;97.29
10466;BME280;5280;42.600;23.556;2024-01-10T11:24:50;94421.34;;;-2.71;98.63
10466;BME280;5280;42.600;23.556;2024-01-10T11:27:19;94422.16;;;-2.68;98.38
10466;BME280;5280;42.600;23.556;2024-01-10T11:29:46;94420.28;;;-2.58;98.24
10466;BME280;5280;42.600;23.556;2024-01-10T11:32:16;94378.47;;;-2.92;98.37
10466;BME280;5280;42.600;23.556;2024-01-10T11:34:58;94415.22;;;-2.66;97.27
10466;BME280;5280;42.600;23.556;2024-01-10T11:37:28;94407.47;;;-2.67;97.18
10466;BME280;5280;42.600;23.556;2024-01-10T11:39:56;94416.94;;;-2.65;98.32
10466;BME280;5280;42.600;23.556;2024-01-10T11:42:24;94398.84;;;-2.66;98.18
10466;BME280;5280;42.600;23.556;2024-01-10T11:45:07;94394.41;;;-2.56;98.41
10466;BME280;5280;42.600;23.556;2024-01-10T11:47:39;94390.09;;;-2.57;97.88
10466;BME280;5280;42.600;23.556;2024-01-10T11:50:09;94381.34;;;-2.47;97.58
10466;BME280;5280;42.600;23.556;2024-01-10T11:52:46;94373.78;;;-2.63;98.77
10466;BME280;5280;42.600;23.556;2024-01-10T11:55:50;94375.38;;;-2.52;99.21
10466;BME280;5280;42.600;23.556;2024-01-10T11:58:17;94374.50;;;-2.50;100.00
10466;BME280;5280;42.600;23.556;2024-01-10T12:00:45;94379.59;;;-2.45;100.00
10466;BME280;5280;42.600;23.556;2024-01-10T12:03:14;94363.16;;;-2.41;100.00
10466;BME280;5280;42.600;23.556;2024-01-10T12:05:42;94349.47;;;-2.49;100.00
10466;BME280;5280;42.600;23.556;2024-01-10T12:08:09;94327.28;;;-2.66;99.60
10466;BME280;5280;42.600;23.556;2024-01-10T12:10:37;94353.59;;;-2.36;100.00
10466;BME280;5280;42.600;23.556;2024-01-10T12:13:05;94332.19;;;-2.47;100.00
10466;BME280;5280;42.600;23.556;2024-01-10T12:15:32;94355.94;;;-2.21;100.00
10466;BME280;5280;42.600;23.556;2024-01-10T12:18:00;94337.84;;;-2.24;100.00
10466;BME280;5280;42.600;23.556;2024-01-10T12:20:29;94341.19;;;-2.14;100.00
10466;BME280;5280;42.600;23.556;2024-01-10T12:22:56;94337.09;;;-2.29;100.00
10466;BME280;5280;42.600;23.556;2024-01-10T12:25:23;94333.59;;;-2.28;100.00
10466;BME280;5280;42.600;23.556;2024-01-10T12:27:51;94342.84;;;-2.12;100.00
10466;BME280;5280;42.600;23.556;2024-01-10T12:30:18;94339.41;;;-2.12;100.00
10466;BME280;5280;42.600;23.556;2024-01-10T12:32:50;94343.72;;;-2.11;100.00
10466;BME280;5280;42.600;23.556;2024-01-10T12:35:17;94265.88;;;-2.54;99.95
10466;BME280;5280;42.600;23.556;2024-01-10T12:37:54;94331.66;;;-2.14;99.96
10466;BME280;5280;42.600;23.556;2024-01-10T12:40:22;94311.13;;;-2.25;100.00
10466;BME280;5280;42.600;23.556;2024-01-10T12:42:49;94331.72;;;-2.17;100.00
10466;BME280;5280;42.600;23.556;2024-01-10T12:45:22;94345.28;;;-2.01;100.00
10466;BME280;5280;42.600;23.556;2024-01-10T12:47:50;94357.19;;;-1.91;99.88
10466;BME280;5280;42.600;23.556;2024-01-10T12:50:19;94351.25;;;-1.98;100.00
10466;BME280;5280;42.600;23.556;2024-01-10T12:52:46;94355.63;;;-2.00;100.00
10466;BME280;5280;42.600;23.556;2024-01-10T12:55:15;94343.63;;;-2.07;100.00
10466;BME280;5280;42.600;23.556;2024-01-10T12:57:43;94347.78;;;-1.95;100.00
10466;BME280;5280;42.600;23.556;2024-01-10T13:00:11;94355.56;;;-1.97;100.00